SUAA    
 162200Z 31004KT 9999 FEWO33 SCT200 23/18 Q1009   
 SUCA    
 162200Z 36007KT 9999 FEW040CB 24/18 Q1009    
 SUDU    
 152100Z 11003KT CAVOK 26/10 Q1012     
 SULS    
 170300Z 36008KT CAVOK 18/15 Q1010     
 SUMU    
 170300Z 36006KT CAVOK 18/14 Q1010 NOSIG    
 SUSO    
 162000Z 21008KT 9999 FEW027 BKN200 30/16 Q1011   
 SABE    
 171700Z 30003KT CAVOK 22/17 Q1010 NOSIG    
 SACO    
 170300Z 04003KT CAVOK 19/15 Q1012 NOSIG    
 SADF    
 170300Z 00000KT 9999 MIFG NSC 19/17 Q1010   
 SAEZ    
 170300Z 36003KT CAVOK 19/18 Q1010 NOSIG    
 SAZB    
 151320Z 34014KT CAVOK 29/13 Q1009     
 SAZM    
 020100Z 27003KT CAVOK 02/00 Q1017     
 SBPA    
 170300Z 09004KT CAVOK 18/16 Q1012     
 SGAS    
 170300Z 18004KT CAVOK 24/12 Q1009     
 SGES    
 170300Z 19004KT CAVOK 21/13 Q1008     
 SCCI    
 170300Z 28027KT CAVOK 07/04 Q0975 NOSIG    
 SCRM    
 170300Z 01014KT 0100 FG VV001 00/00 Q0979 NOSIG